• Join FlightAware (Why Join?)
  • Login
  • US Flag 
07:13PM EDT


 

Airport Tracker/Info


-or-


 

Live Flight TrackerFlight Track Log ✈ FIV602 ✈ 06-Feb-2014 ✈ KADM - KICT

Flight Track Log - Related Links

Times and Time Zones

All times are in EST time to prevent confusion due to time zone crossing. See the FIV602 flight status page for this flight to view local times or setup timezone preferences in your user account.

Time Position Orientation Groundspeed Altitude Reporting Facility
EST Latitude Longitude Course Direction KTS MPH feet Rate Location/Type
06:01PM 34.4361 -97.0247 North 286 329 10,800  Level Fort Worth Center
06:02PM 34.5306 -97.0281 358° North 341 392 15,600 3,960 Climbing Fort Worth Center
06:03PM 34.6342 -97.0300 359° North 369 425 19,000 3,180 Climbing Fort Worth Center
06:04PM 34.8395 -97.0323 355° North  Level FlightAware Approximate
06:04PM 34.7461 -97.0336 358° North 401 461 22,200  Level Fort Worth Center
06:05PM 34.9288 -97.0333 North  Level FlightAware Approximate
06:05PM 34.8878 -97.0356 359° North 426 490 25,600  Level Fort Worth Center
06:06PM 35.0181 -97.0333 North  Level FlightAware Approximate
06:06PM 35.0072 -97.0392 359° North 431 496 26,000  Level Fort Worth Center
06:07PM 35.1267 -97.0428 359° North 432 497 26,000  Level Fort Worth Center
06:08PM 35.2456 -97.0467 358° North 430 495 26,000  Level Fort Worth Center
06:09PM 35.3664 -97.0483 359° North 438 504 26,000  Level Fort Worth Center
06:10PM 35.5092 -97.0511 359° North 434 499 26,000  Level Fort Worth Center
06:11PM 35.6289 -97.0542 359° North 435 501 26,000  Level Fort Worth Center
06:12PM 35.7711 -97.0586 359° North 432 497 26,000  Level Kansas City Center
06:13PM 35.8881 -97.0603 359° North 425 489 26,000  Level Kansas City Center
06:14PM 36.0042 -97.0636 359° North 421 484 26,000 -540 Level Kansas City Center
06:15PM 36.1214 -97.0669 359° North 422 486 24,900 -1,020 Descending Kansas City Center
06:16PM 36.2589 -97.0700 359° North 415 478 24,000 -480 Descending Kansas City Center
06:17PM 36.3731 -97.0722 359° North 412 474 24,000  Level Kansas City Center
06:18PM 36.4881 -97.0758 359° North 413 475 24,000 -720 Level Kansas City Center
06:19PM 36.5967 -97.0778 359° North 408 470 22,600 -1,800 Descending Kansas City Center
06:20PM 36.7072 -97.0806 359° North 399 459 20,300 -2,220 Descending Kansas City Center
06:21PM 36.8150 -97.0836 359° North 389 448 18,100 -2,280 Descending Kansas City Center
06:22PM 36.9272 -97.0867 359° North 380 437 15,700 -2,280 Descending Kansas City Center
06:23PM 36.9908 -97.0897 358° North 362 417 14,500 -1,980 Descending Kansas City Center
06:23PM 37.0269 -97.0897 360° North 366 421 13,700 -2,220 Descending Kansas City Center
06:24PM 37.0753 -97.0922 358° North 358 412 12,700 -2,340 Descending Kansas City Center
06:25PM 37.1439 -97.0906 North 355 409 11,300 -1,860 Descending Kansas City Center
06:25PM 37.1406 -97.0922 202° Southwest 347 399 11,400 -1,860 Climbing Kansas City Center
06:26PM 37.2286 -97.1125 350° North 254 292 9,200 -1,860 Descending Kansas City Center
06:27PM 37.2822 -97.1514 330° Northwest 263 303 7,700 -1,680 Descending Kansas City Center
06:27PM 37.2903 -97.1606 318° Northwest 252 290 7,500 -1,800 Descending Kansas City Center
06:28PM 37.3439 -97.1989 330° Northwest 260 299 5,900 -1,740 Descending Kansas City Center
06:28PM 37.3517 -97.2064 323° Northwest 259 298 5,800 -780 Descending Kansas City Center
06:29PM 37.4042 -97.2431 331° Northwest 257 296 5,100 -840 Descending Kansas City Center
06:29PM 37.4153 -97.2544 321° Northwest 251 289 4,900 -720 Descending Kansas City Center
06:30PM 37.4753 -97.3083 325° Northwest 241 277 4,300 -780 Descending Kansas City Center
06:31PM 37.5167 -97.3439 326° Northwest 212 244 3,500 -1,020 Descending Kansas City Center
06:31PM 37.5214 -97.3450 349° North 234 269 3,400 -600 Descending Kansas City Center
06:32PM 37.5667 -97.3839 326° Northwest 213 245 2,900 -480 Descending Kansas City Center
06:32PM 37.5714 -97.3883 323° Northwest 195 224 2,900 -780 Level Kansas City Center
06:33PM 37.6078 -97.4144 330° Northwest 159 183 2,200 -780 Descending Kansas City Center
06:33PM 37.6075 -97.4119 98° East 183 211 2,200 -600 Level Kansas City Center
06:34PM 37.6408 -97.4325 334° Northwest 148 170 1,600 -780 Descending Kansas City Center
06:34PM 37.6406 -97.4278 94° East 102 117 1,400 -12,000 Descending Kansas City Center
06:36PM 37.6333 -97.4167 142° Southeast  Level FlightAware Approximate
06:43PM 37.6499 -97.4331 142° Southeast  Level Estimated
06:44PM 37.6499 -97.4331 142° Southeast  Level Estimated
06:45PM 37.6499 -97.4331 142° Southeast  Level Estimated
06:46PM 37.6499 -97.4331 142° Southeast  Level Estimated
06:47PM 37.6499 -97.4331 142° Southeast  Level Estimated
06:48PM 37.6499 -97.4331 142° Southeast  Level Estimated